sensor_id;sensor_type;location;lat;lon;timestamp;P1;durP1;ratioP1;P2;durP2;ratioP2
22774;SDS011;11554;51.106;3.684;2022-12-08T00:00:00;13.70;;;7.70;;
22774;SDS011;11554;51.106;3.684;2022-12-08T00:05:00;12.10;;;7.20;;
22774;SDS011;11554;51.106;3.684;2022-12-08T00:10:00;12.10;;;7.20;;
22774;SDS011;11554;51.106;3.684;2022-12-08T00:15:00;11.80;;;6.50;;
22774;SDS011;11554;51.106;3.684;2022-12-08T00:20:00;11.80;;;6.50;;
22774;SDS011;11554;51.106;3.684;2022-12-08T00:25:00;12.00;;;6.60;;
22774;SDS011;11554;51.106;3.684;2022-12-08T00:30:00;12.00;;;6.60;;
22774;SDS011;11554;51.106;3.684;2022-12-08T00:35:00;14.00;;;6.90;;
22774;SDS011;11554;51.106;3.684;2022-12-08T00:40:00;14.00;;;6.90;;
22774;SDS011;11554;51.106;3.684;2022-12-08T00:45:00;12.50;;;6.30;;
22774;SDS011;11554;51.106;3.684;2022-12-08T00:50:00;12.50;;;6.30;;
22774;SDS011;11554;51.106;3.684;2022-12-08T00:55:00;11.00;;;6.80;;
22774;SDS011;11554;51.106;3.684;2022-12-08T01:00:00;11.00;;;6.80;;
22774;SDS011;11554;51.106;3.684;2022-12-08T01:05:00;14.30;;;7.50;;
22774;SDS011;11554;51.106;3.684;2022-12-08T01:10:00;14.30;;;7.50;;
22774;SDS011;11554;51.106;3.684;2022-12-08T01:15:00;14.90;;;8.00;;
22774;SDS011;11554;51.106;3.684;2022-12-08T01:20:00;14.90;;;8.00;;
22774;SDS011;11554;51.106;3.684;2022-12-08T01:25:00;13.90;;;7.60;;
22774;SDS011;11554;51.106;3.684;2022-12-08T01:30:00;13.90;;;7.60;;
22774;SDS011;11554;51.106;3.684;2022-12-08T01:35:00;14.10;;;7.70;;
22774;SDS011;11554;51.106;3.684;2022-12-08T01:40:00;14.10;;;7.70;;
22774;SDS011;11554;51.106;3.684;2022-12-08T01:45:02;13.70;;;7.30;;
22774;SDS011;11554;51.106;3.684;2022-12-08T01:50:00;13.70;;;7.30;;
22774;SDS011;11554;51.106;3.684;2022-12-08T01:55:03;13.20;;;6.90;;
22774;SDS011;11554;51.106;3.684;2022-12-08T02:00:04;13.20;;;6.90;;
22774;SDS011;11554;51.106;3.684;2022-12-08T02:05:01;13.20;;;6.70;;
22774;SDS011;11554;51.106;3.684;2022-12-08T02:10:00;13.20;;;6.70;;
22774;SDS011;11554;51.106;3.684;2022-12-08T02:15:00;11.60;;;6.20;;
22774;SDS011;11554;51.106;3.684;2022-12-08T02:20:18;11.60;;;6.20;;
22774;SDS011;11554;51.106;3.684;2022-12-08T02:25:07;13.30;;;6.30;;
22774;SDS011;11554;51.106;3.684;2022-12-08T02:30:06;13.30;;;6.30;;
22774;SDS011;11554;51.106;3.684;2022-12-08T02:35:03;12.90;;;6.40;;
22774;SDS011;11554;51.106;3.684;2022-12-08T02:40:04;12.90;;;6.40;;
22774;SDS011;11554;51.106;3.684;2022-12-08T02:45:04;12.10;;;6.10;;
22774;SDS011;11554;51.106;3.684;2022-12-08T02:50:00;12.10;;;6.10;;
22774;SDS011;11554;51.106;3.684;2022-12-08T02:55:02;8.40;;;4.20;;
22774;SDS011;11554;51.106;3.684;2022-12-08T03:00:05;8.40;;;4.20;;
22774;SDS011;11554;51.106;3.684;2022-12-08T03:05:05;5.90;;;2.50;;
22774;SDS011;11554;51.106;3.684;2022-12-08T03:10:05;5.90;;;2.50;;
22774;SDS011;11554;51.106;3.684;2022-12-08T03:15:05;5.30;;;2.50;;
22774;SDS011;11554;51.106;3.684;2022-12-08T03:20:04;5.30;;;2.50;;
22774;SDS011;11554;51.106;3.684;2022-12-08T03:25:00;6.90;;;3.30;;
22774;SDS011;11554;51.106;3.684;2022-12-08T03:30:00;6.90;;;3.30;;
22774;SDS011;11554;51.106;3.684;2022-12-08T03:35:03;7.70;;;4.90;;
22774;SDS011;11554;51.106;3.684;2022-12-08T03:40:00;7.70;;;4.90;;
22774;SDS011;11554;51.106;3.684;2022-12-08T03:45:00;12.20;;;5.80;;
22774;SDS011;11554;51.106;3.684;2022-12-08T03:50:00;12.20;;;5.80;;
22774;SDS011;11554;51.106;3.684;2022-12-08T03:55:00;10.20;;;5.90;;
22774;SDS011;11554;51.106;3.684;2022-12-08T04:00:00;10.20;;;5.90;;
22774;SDS011;11554;51.106;3.684;2022-12-08T04:05:00;10.20;;;6.10;;
22774;SDS011;11554;51.106;3.684;2022-12-08T04:10:00;10.20;;;6.10;;
22774;SDS011;11554;51.106;3.684;2022-12-08T04:15:00;14.80;;;5.80;;
22774;SDS011;11554;51.106;3.684;2022-12-08T04:20:00;14.80;;;5.80;;
22774;SDS011;11554;51.106;3.684;2022-12-08T04:25:00;9.90;;;5.30;;
22774;SDS011;11554;51.106;3.684;2022-12-08T04:30:00;9.90;;;5.30;;
22774;SDS011;11554;51.106;3.684;2022-12-08T04:35:00;9.90;;;4.70;;
22774;SDS011;11554;51.106;3.684;2022-12-08T04:40:00;9.90;;;4.70;;
22774;SDS011;11554;51.106;3.684;2022-12-08T04:45:00;10.20;;;6.00;;
22774;SDS011;11554;51.106;3.684;2022-12-08T04:50:00;10.20;;;6.00;;
22774;SDS011;11554;51.106;3.684;2022-12-08T04:55:01;10.50;;;6.80;;
22774;SDS011;11554;51.106;3.684;2022-12-08T05:00:00;10.50;;;6.80;;
22774;SDS011;11554;51.106;3.684;2022-12-08T05:05:00;13.60;;;7.60;;
22774;SDS011;11554;51.106;3.684;2022-12-08T05:10:00;13.60;;;7.60;;
22774;SDS011;11554;51.106;3.684;2022-12-08T05:15:00;15.50;;;8.30;;
22774;SDS011;11554;51.106;3.684;2022-12-08T05:20:00;15.50;;;8.30;;
22774;SDS011;11554;51.106;3.684;2022-12-08T05:25:00;14.10;;;8.10;;
22774;SDS011;11554;51.106;3.684;2022-12-08T05:30:00;14.10;;;8.10;;
22774;SDS011;11554;51.106;3.684;2022-12-08T05:35:00;11.70;;;7.70;;
22774;SDS011;11554;51.106;3.684;2022-12-08T05:40:00;11.70;;;7.70;;
22774;SDS011;11554;51.106;3.684;2022-12-08T05:45:00;14.80;;;8.40;;
22774;SDS011;11554;51.106;3.684;2022-12-08T05:50:00;14.80;;;8.40;;
22774;SDS011;11554;51.106;3.684;2022-12-08T05:55:00;14.70;;;9.00;;
22774;SDS011;11554;51.106;3.684;2022-12-08T06:00:00;14.70;;;9.00;;
22774;SDS011;11554;51.106;3.684;2022-12-08T06:05:00;17.20;;;9.00;;
22774;SDS011;11554;51.106;3.684;2022-12-08T06:10:00;17.20;;;9.00;;
22774;SDS011;11554;51.106;3.684;2022-12-08T06:15:00;15.50;;;8.90;;
22774;SDS011;11554;51.106;3.684;2022-12-08T06:20:00;15.50;;;8.90;;
22774;SDS011;11554;51.106;3.684;2022-12-08T06:25:00;12.90;;;7.40;;
22774;SDS011;11554;51.106;3.684;2022-12-08T06:30:00;12.90;;;7.40;;
22774;SDS011;11554;51.106;3.684;2022-12-08T06:35:00;17.30;;;9.10;;
22774;SDS011;11554;51.106;3.684;2022-12-08T06:40:00;17.30;;;9.10;;
22774;SDS011;11554;51.106;3.684;2022-12-08T06:45:00;17.00;;;8.20;;
22774;SDS011;11554;51.106;3.684;2022-12-08T06:50:00;17.00;;;8.20;;
22774;SDS011;11554;51.106;3.684;2022-12-08T06:55:00;10.40;;;5.10;;
22774;SDS011;11554;51.106;3.684;2022-12-08T07:00:00;10.40;;;5.10;;
22774;SDS011;11554;51.106;3.684;2022-12-08T07:05:00;9.80;;;4.80;;
22774;SDS011;11554;51.106;3.684;2022-12-08T07:10:00;9.80;;;4.80;;
22774;SDS011;11554;51.106;3.684;2022-12-08T07:15:00;9.20;;;3.70;;
22774;SDS011;11554;51.106;3.684;2022-12-08T07:20:00;9.20;;;3.70;;
22774;SDS011;11554;51.106;3.684;2022-12-08T07:25:00;7.30;;;2.80;;
22774;SDS011;11554;51.106;3.684;2022-12-08T07:30:00;7.30;;;2.80;;
22774;SDS011;11554;51.106;3.684;2022-12-08T07:35:00;8.70;;;2.80;;
22774;SDS011;11554;51.106;3.684;2022-12-08T07:40:00;8.70;;;2.80;;
22774;SDS011;11554;51.106;3.684;2022-12-08T07:45:00;5.50;;;2.50;;
22774;SDS011;11554;51.106;3.684;2022-12-08T07:50:00;5.50;;;2.50;;
22774;SDS011;11554;51.106;3.684;2022-12-08T07:55:00;4.80;;;2.50;;
22774;SDS011;11554;51.106;3.684;2022-12-08T08:00:00;4.80;;;2.50;;
22774;SDS011;11554;51.106;3.684;2022-12-08T08:05:00;6.10;;;2.50;;
22774;SDS011;11554;51.106;3.684;2022-12-08T08:10:00;6.10;;;2.50;;
22774;SDS011;11554;51.106;3.684;2022-12-08T08:15:04;7.40;;;2.60;;
22774;SDS011;11554;51.106;3.684;2022-12-08T08:20:00;7.40;;;2.60;;
22774;SDS011;11554;51.106;3.684;2022-12-08T08:25:00;8.70;;;3.30;;
22774;SDS011;11554;51.106;3.684;2022-12-08T08:30:00;8.70;;;3.30;;
22774;SDS011;11554;51.106;3.684;2022-12-08T08:35:00;8.60;;;3.70;;
22774;SDS011;11554;51.106;3.684;2022-12-08T08:40:00;8.60;;;3.70;;
22774;SDS011;11554;51.106;3.684;2022-12-08T08:45:00;10.10;;;4.30;;
22774;SDS011;11554;51.106;3.684;2022-12-08T08:50:00;10.10;;;4.30;;
22774;SDS011;11554;51.106;3.684;2022-12-08T08:55:00;12.90;;;5.50;;
22774;SDS011;11554;51.106;3.684;2022-12-08T09:00:00;12.90;;;5.50;;
22774;SDS011;11554;51.106;3.684;2022-12-08T09:05:00;17.30;;;6.90;;
22774;SDS011;11554;51.106;3.684;2022-12-08T09:10:00;17.30;;;6.90;;
22774;SDS011;11554;51.106;3.684;2022-12-08T09:15:00;13.20;;;7.50;;
22774;SDS011;11554;51.106;3.684;2022-12-08T09:20:00;13.20;;;7.50;;
22774;SDS011;11554;51.106;3.684;2022-12-08T09:25:00;18.40;;;8.30;;
22774;SDS011;11554;51.106;3.684;2022-12-08T09:30:00;18.40;;;8.30;;
22774;SDS011;11554;51.106;3.684;2022-12-08T09:35:00;19.40;;;8.30;;
22774;SDS011;11554;51.106;3.684;2022-12-08T09:40:00;19.40;;;8.30;;
22774;SDS011;11554;51.106;3.684;2022-12-08T09:45:05;20.20;;;8.40;;
22774;SDS011;11554;51.106;3.684;2022-12-08T09:50:03;20.20;;;8.40;;
22774;SDS011;11554;51.106;3.684;2022-12-08T09:55:08;16.00;;;8.90;;
22774;SDS011;11554;51.106;3.684;2022-12-08T10:00:03;16.00;;;8.90;;
22774;SDS011;11554;51.106;3.684;2022-12-08T10:05:00;14.40;;;8.50;;
22774;SDS011;11554;51.106;3.684;2022-12-08T10:10:06;14.40;;;8.50;;
22774;SDS011;11554;51.106;3.684;2022-12-08T10:15:08;16.70;;;8.90;;
22774;SDS011;11554;51.106;3.684;2022-12-08T10:20:09;16.70;;;8.90;;
22774;SDS011;11554;51.106;3.684;2022-12-08T10:25:06;14.00;;;8.30;;
22774;SDS011;11554;51.106;3.684;2022-12-08T10:30:00;14.00;;;8.30;;
22774;SDS011;11554;51.106;3.684;2022-12-08T10:35:04;15.20;;;8.10;;
22774;SDS011;11554;51.106;3.684;2022-12-08T10:40:05;15.20;;;8.10;;
22774;SDS011;11554;51.106;3.684;2022-12-08T10:45:13;14.10;;;7.20;;
22774;SDS011;11554;51.106;3.684;2022-12-08T10:50:18;14.10;;;7.20;;
22774;SDS011;11554;51.106;3.684;2022-12-08T10:55:00;12.70;;;6.50;;
22774;SDS011;11554;51.106;3.684;2022-12-08T11:00:00;12.70;;;6.50;;
22774;SDS011;11554;51.106;3.684;2022-12-08T11:05:00;9.60;;;5.20;;
22774;SDS011;11554;51.106;3.684;2022-12-08T11:10:00;9.60;;;5.20;;
22774;SDS011;11554;51.106;3.684;2022-12-08T11:15:01;8.70;;;4.20;;
22774;SDS011;11554;51.106;3.684;2022-12-08T11:20:03;8.70;;;4.20;;
22774;SDS011;11554;51.106;3.684;2022-12-08T11:25:08;6.50;;;3.20;;
22774;SDS011;11554;51.106;3.684;2022-12-08T11:30:00;6.50;;;3.20;;
22774;SDS011;11554;51.106;3.684;2022-12-08T11:35:03;6.30;;;4.10;;
22774;SDS011;11554;51.106;3.684;2022-12-08T11:40:05;6.30;;;4.10;;
22774;SDS011;11554;51.106;3.684;2022-12-08T11:45:05;10.60;;;4.10;;
22774;SDS011;11554;51.106;3.684;2022-12-08T11:50:10;10.60;;;4.10;;
22774;SDS011;11554;51.106;3.684;2022-12-08T11:55:03;5.70;;;3.70;;
22774;SDS011;11554;51.106;3.684;2022-12-08T12:00:00;5.70;;;3.70;;
22774;SDS011;11554;51.106;3.684;2022-12-08T12:05:03;6.00;;;3.10;;
22774;SDS011;11554;51.106;3.684;2022-12-08T12:20:08;9.60;;;3.30;;
22774;SDS011;11554;51.106;3.684;2022-12-08T12:25:01;7.90;;;3.40;;
22774;SDS011;11554;51.106;3.684;2022-12-08T12:30:04;7.90;;;3.40;;
22774;SDS011;11554;51.106;3.684;2022-12-08T12:35:00;3.60;;;1.60;;
22774;SDS011;11554;51.106;3.684;2022-12-08T12:40:03;3.60;;;1.60;;
22774;SDS011;11554;51.106;3.684;2022-12-08T12:45:18;2.00;;;1.10;;
22774;SDS011;11554;51.106;3.684;2022-12-08T12:50:07;2.00;;;1.10;;
22774;SDS011;11554;51.106;3.684;2022-12-08T13:00:08;2.50;;;1.20;;
22774;SDS011;11554;51.106;3.684;2022-12-08T13:05:08;2.90;;;1.50;;
22774;SDS011;11554;51.106;3.684;2022-12-08T13:10:13;2.90;;;1.50;;
22774;SDS011;11554;51.106;3.684;2022-12-08T13:15:03;2.20;;;1.70;;
22774;SDS011;11554;51.106;3.684;2022-12-08T13:20:03;2.20;;;1.70;;
22774;SDS011;11554;51.106;3.684;2022-12-08T13:35:01;1.40;;;0.50;;
22774;SDS011;11554;51.106;3.684;2022-12-08T13:40:02;1.40;;;0.50;;
22774;SDS011;11554;51.106;3.684;2022-12-08T13:45:03;1.70;;;0.60;;
22774;SDS011;11554;51.106;3.684;2022-12-08T13:50:03;1.70;;;0.60;;
22774;SDS011;11554;51.106;3.684;2022-12-08T13:55:01;1.80;;;0.90;;
22774;SDS011;11554;51.106;3.684;2022-12-08T14:00:03;1.80;;;0.90;;
22774;SDS011;11554;51.106;3.684;2022-12-08T14:05:01;1.50;;;0.60;;
22774;SDS011;11554;51.106;3.684;2022-12-08T14:10:01;1.50;;;0.60;;
22774;SDS011;11554;51.106;3.684;2022-12-08T14:15:02;1.00;;;0.40;;
22774;SDS011;11554;51.106;3.684;2022-12-08T14:20:03;1.00;;;0.40;;
22774;SDS011;11554;51.106;3.684;2022-12-08T14:25:00;0.90;;;0.40;;
22774;SDS011;11554;51.106;3.684;2022-12-08T14:30:01;0.90;;;0.40;;
22774;SDS011;11554;51.106;3.684;2022-12-08T14:35:11;2.90;;;1.00;;
22774;SDS011;11554;51.106;3.684;2022-12-08T14:40:03;2.90;;;1.00;;
22774;SDS011;11554;51.106;3.684;2022-12-08T14:45:04;2.40;;;1.00;;
22774;SDS011;11554;51.106;3.684;2022-12-08T14:50:02;2.40;;;1.00;;
22774;SDS011;11554;51.106;3.684;2022-12-08T14:55:00;2.90;;;1.30;;
22774;SDS011;11554;51.106;3.684;2022-12-08T15:00:07;2.90;;;1.30;;
22774;SDS011;11554;51.106;3.684;2022-12-08T15:05:02;4.20;;;1.70;;
22774;SDS011;11554;51.106;3.684;2022-12-08T15:10:19;4.20;;;1.70;;
22774;SDS011;11554;51.106;3.684;2022-12-08T15:15:10;3.90;;;1.80;;
22774;SDS011;11554;51.106;3.684;2022-12-08T15:20:02;3.90;;;1.80;;
22774;SDS011;11554;51.106;3.684;2022-12-08T15:25:00;7.30;;;2.40;;
22774;SDS011;11554;51.106;3.684;2022-12-08T15:30:00;7.30;;;2.40;;
22774;SDS011;11554;51.106;3.684;2022-12-08T15:35:00;7.30;;;2.70;;
22774;SDS011;11554;51.106;3.684;2022-12-08T15:40:00;7.30;;;2.70;;
22774;SDS011;11554;51.106;3.684;2022-12-08T15:45:00;7.80;;;3.20;;
22774;SDS011;11554;51.106;3.684;2022-12-08T15:50:00;7.80;;;3.20;;
22774;SDS011;11554;51.106;3.684;2022-12-08T15:55:00;12.40;;;5.40;;
22774;SDS011;11554;51.106;3.684;2022-12-08T16:00:00;12.40;;;5.40;;
22774;SDS011;11554;51.106;3.684;2022-12-08T16:05:00;10.00;;;5.80;;
22774;SDS011;11554;51.106;3.684;2022-12-08T16:10:00;10.00;;;5.80;;
22774;SDS011;11554;51.106;3.684;2022-12-08T16:15:00;12.10;;;7.20;;
22774;SDS011;11554;51.106;3.684;2022-12-08T16:20:01;12.10;;;7.20;;
22774;SDS011;11554;51.106;3.684;2022-12-08T16:25:00;21.30;;;12.50;;
22774;SDS011;11554;51.106;3.684;2022-12-08T16:30:01;21.30;;;12.50;;
22774;SDS011;11554;51.106;3.684;2022-12-08T16:35:00;14.70;;;10.80;;
22774;SDS011;11554;51.106;3.684;2022-12-08T16:40:00;14.70;;;10.80;;
22774;SDS011;11554;51.106;3.684;2022-12-08T16:45:01;16.20;;;10.30;;
22774;SDS011;11554;51.106;3.684;2022-12-08T16:50:03;16.20;;;10.30;;
22774;SDS011;11554;51.106;3.684;2022-12-08T16:55:01;18.10;;;12.20;;
22774;SDS011;11554;51.106;3.684;2022-12-08T17:00:00;18.10;;;12.20;;
22774;SDS011;11554;51.106;3.684;2022-12-08T17:05:00;21.90;;;11.90;;
22774;SDS011;11554;51.106;3.684;2022-12-08T17:10:02;21.90;;;11.90;;
22774;SDS011;11554;51.106;3.684;2022-12-08T17:15:01;20.80;;;11.80;;
22774;SDS011;11554;51.106;3.684;2022-12-08T17:20:00;20.80;;;11.80;;
22774;SDS011;11554;51.106;3.684;2022-12-08T17:25:01;17.00;;;10.00;;
22774;SDS011;11554;51.106;3.684;2022-12-08T17:30:00;17.00;;;10.00;;
22774;SDS011;11554;51.106;3.684;2022-12-08T17:35:00;16.60;;;9.40;;
22774;SDS011;11554;51.106;3.684;2022-12-08T17:40:00;16.60;;;9.40;;
22774;SDS011;11554;51.106;3.684;2022-12-08T17:45:00;15.40;;;9.90;;
22774;SDS011;11554;51.106;3.684;2022-12-08T17:50:00;15.40;;;9.90;;
22774;SDS011;11554;51.106;3.684;2022-12-08T17:55:00;20.20;;;12.40;;
22774;SDS011;11554;51.106;3.684;2022-12-08T18:00:00;20.20;;;12.40;;
22774;SDS011;11554;51.106;3.684;2022-12-08T18:05:00;16.80;;;10.30;;
22774;SDS011;11554;51.106;3.684;2022-12-08T18:10:00;16.80;;;10.30;;
22774;SDS011;11554;51.106;3.684;2022-12-08T18:15:00;14.90;;;9.70;;
22774;SDS011;11554;51.106;3.684;2022-12-08T18:20:00;14.90;;;9.70;;
22774;SDS011;11554;51.106;3.684;2022-12-08T18:25:00;18.60;;;12.00;;
22774;SDS011;11554;51.106;3.684;2022-12-08T18:30:00;18.60;;;12.00;;
22774;SDS011;11554;51.106;3.684;2022-12-08T18:35:00;14.10;;;8.90;;
22774;SDS011;11554;51.106;3.684;2022-12-08T18:40:00;14.10;;;8.90;;
22774;SDS011;11554;51.106;3.684;2022-12-08T18:45:00;33.90;;;13.50;;
22774;SDS011;11554;51.106;3.684;2022-12-08T18:50:00;33.90;;;13.50;;
22774;SDS011;11554;51.106;3.684;2022-12-08T18:55:00;19.50;;;12.10;;
22774;SDS011;11554;51.106;3.684;2022-12-08T19:00:00;19.50;;;12.10;;
22774;SDS011;11554;51.106;3.684;2022-12-08T19:05:00;13.90;;;7.30;;
22774;SDS011;11554;51.106;3.684;2022-12-08T19:10:00;13.90;;;7.30;;
22774;SDS011;11554;51.106;3.684;2022-12-08T19:15:00;22.10;;;12.30;;
22774;SDS011;11554;51.106;3.684;2022-12-08T19:20:00;22.10;;;12.30;;
22774;SDS011;11554;51.106;3.684;2022-12-08T19:25:00;15.70;;;8.40;;
22774;SDS011;11554;51.106;3.684;2022-12-08T19:30:00;15.70;;;8.40;;
22774;SDS011;11554;51.106;3.684;2022-12-08T19:35:00;21.30;;;12.20;;
22774;SDS011;11554;51.106;3.684;2022-12-08T19:40:00;21.30;;;12.20;;
22774;SDS011;11554;51.106;3.684;2022-12-08T19:45:04;26.70;;;14.70;;
22774;SDS011;11554;51.106;3.684;2022-12-08T19:50:00;26.70;;;14.70;;
22774;SDS011;11554;51.106;3.684;2022-12-08T19:55:00;22.50;;;12.60;;
22774;SDS011;11554;51.106;3.684;2022-12-08T20:00:00;22.50;;;12.60;;
22774;SDS011;11554;51.106;3.684;2022-12-08T20:05:00;22.40;;;11.50;;
22774;SDS011;11554;51.106;3.684;2022-12-08T20:10:02;22.40;;;11.50;;
22774;SDS011;11554;51.106;3.684;2022-12-08T20:15:00;14.70;;;10.60;;
22774;SDS011;11554;51.106;3.684;2022-12-08T20:20:00;14.70;;;10.60;;
22774;SDS011;11554;51.106;3.684;2022-12-08T20:25:00;15.60;;;10.60;;
22774;SDS011;11554;51.106;3.684;2022-12-08T20:30:00;15.60;;;10.60;;
22774;SDS011;11554;51.106;3.684;2022-12-08T20:35:00;16.10;;;9.80;;
22774;SDS011;11554;51.106;3.684;2022-12-08T20:40:00;16.10;;;9.80;;
22774;SDS011;11554;51.106;3.684;2022-12-08T20:45:00;15.70;;;10.20;;
22774;SDS011;11554;51.106;3.684;2022-12-08T20:50:00;15.70;;;10.20;;
22774;SDS011;11554;51.106;3.684;2022-12-08T20:55:00;14.60;;;10.20;;
22774;SDS011;11554;51.106;3.684;2022-12-08T21:00:00;14.60;;;10.20;;
22774;SDS011;11554;51.106;3.684;2022-12-08T21:05:00;15.50;;;10.40;;
22774;SDS011;11554;51.106;3.684;2022-12-08T21:10:00;15.50;;;10.40;;
22774;SDS011;11554;51.106;3.684;2022-12-08T21:15:00;19.00;;;11.70;;
22774;SDS011;11554;51.106;3.684;2022-12-08T21:20:00;19.00;;;11.70;;
22774;SDS011;11554;51.106;3.684;2022-12-08T21:25:00;18.00;;;12.10;;
22774;SDS011;11554;51.106;3.684;2022-12-08T21:30:00;18.00;;;12.10;;
22774;SDS011;11554;51.106;3.684;2022-12-08T21:35:00;21.70;;;13.20;;
22774;SDS011;11554;51.106;3.684;2022-12-08T21:40:00;21.70;;;13.20;;
22774;SDS011;11554;51.106;3.684;2022-12-08T21:45:00;22.40;;;14.20;;
22774;SDS011;11554;51.106;3.684;2022-12-08T21:50:00;22.40;;;14.20;;
22774;SDS011;11554;51.106;3.684;2022-12-08T21:55:00;8.70;;;5.50;;
22774;SDS011;11554;51.106;3.684;2022-12-08T22:00:00;8.70;;;5.50;;
22774;SDS011;11554;51.106;3.684;2022-12-08T22:05:00;7.50;;;4.80;;
22774;SDS011;11554;51.106;3.684;2022-12-08T22:10:00;7.50;;;4.80;;
22774;SDS011;11554;51.106;3.684;2022-12-08T22:15:00;7.80;;;4.60;;
22774;SDS011;11554;51.106;3.684;2022-12-08T22:20:00;7.80;;;4.60;;
22774;SDS011;11554;51.106;3.684;2022-12-08T22:25:00;7.50;;;4.60;;
22774;SDS011;11554;51.106;3.684;2022-12-08T22:30:00;7.50;;;4.60;;
22774;SDS011;11554;51.106;3.684;2022-12-08T22:35:00;6.10;;;2.60;;
22774;SDS011;11554;51.106;3.684;2022-12-08T22:40:00;6.10;;;2.60;;
22774;SDS011;11554;51.106;3.684;2022-12-08T22:45:00;6.10;;;2.20;;
22774;SDS011;11554;51.106;3.684;2022-12-08T22:50:00;6.10;;;2.20;;
22774;SDS011;11554;51.106;3.684;2022-12-08T22:55:00;6.10;;;2.20;;
22774;SDS011;11554;51.106;3.684;2022-12-08T23:00:00;6.10;;;2.20;;
22774;SDS011;11554;51.106;3.684;2022-12-08T23:05:00;8.00;;;2.70;;
22774;SDS011;11554;51.106;3.684;2022-12-08T23:10:00;8.00;;;2.70;;
22774;SDS011;11554;51.106;3.684;2022-12-08T23:15:00;5.60;;;2.30;;
22774;SDS011;11554;51.106;3.684;2022-12-08T23:20:00;5.60;;;2.30;;
22774;SDS011;11554;51.106;3.684;2022-12-08T23:25:00;6.10;;;2.80;;
22774;SDS011;11554;51.106;3.684;2022-12-08T23:30:00;6.10;;;2.80;;
22774;SDS011;11554;51.106;3.684;2022-12-08T23:35:00;6.80;;;3.50;;
22774;SDS011;11554;51.106;3.684;2022-12-08T23:40:00;6.80;;;3.50;;
22774;SDS011;11554;51.106;3.684;2022-12-08T23:45:00;7.50;;;4.20;;
22774;SDS011;11554;51.106;3.684;2022-12-08T23:50:00;7.50;;;4.20;;
22774;SDS011;11554;51.106;3.684;2022-12-08T23:55:00;8.80;;;4.40;;
